sensor_id;sensor_type;location;lat;lon;timestamp;P1;durP1;ratioP1;P2;durP2;ratioP2
60241;SDS011;46103;52.076;113.488;2024-03-06T00:01:13;19.33;;;8.68;;
60241;SDS011;46103;52.076;113.488;2024-03-06T00:04:17;23.73;;;10.27;;
60241;SDS011;46103;52.076;113.488;2024-03-06T00:07:21;30.13;;;11.98;;
60241;SDS011;46103;52.076;113.488;2024-03-06T00:10:25;19.33;;;10.88;;
60241;SDS011;46103;52.076;113.488;2024-03-06T00:16:32;22.58;;;10.10;;
60241;SDS011;46103;52.076;113.488;2024-03-06T00:19:37;40.25;;;16.08;;
60241;SDS011;46103;52.076;113.488;2024-03-06T00:22:41;29.35;;;13.00;;
60241;SDS011;46103;52.076;113.488;2024-03-06T00:25:45;17.02;;;6.97;;
60241;SDS011;46103;52.076;113.488;2024-03-06T00:28:49;63.97;;;28.83;;
60241;SDS011;46103;52.076;113.488;2024-03-06T00:31:53;57.55;;;25.70;;
60241;SDS011;46103;52.076;113.488;2024-03-06T00:34:56;68.00;;;29.08;;
60241;SDS011;46103;52.076;113.488;2024-03-06T00:38:00;57.88;;;24.90;;
60241;SDS011;46103;52.076;113.488;2024-03-06T00:41:05;87.18;;;37.75;;
60241;SDS011;46103;52.076;113.488;2024-03-06T00:44:10;74.50;;;32.20;;
60241;SDS011;46103;52.076;113.488;2024-03-06T00:47:14;66.35;;;30.42;;
60241;SDS011;46103;52.076;113.488;2024-03-06T00:50:18;106.85;;;43.88;;
60241;SDS011;46103;52.076;113.488;2024-03-06T00:53:24;85.45;;;38.40;;
60241;SDS011;46103;52.076;113.488;2024-03-06T00:56:28;122.70;;;49.08;;
60241;SDS011;46103;52.076;113.488;2024-03-06T00:59:31;91.82;;;38.65;;
60241;SDS011;46103;52.076;113.488;2024-03-06T01:02:36;89.88;;;39.35;;
60241;SDS011;46103;52.076;113.488;2024-03-06T01:05:40;97.00;;;42.00;;
60241;SDS011;46103;52.076;113.488;2024-03-06T01:08:44;90.57;;;36.75;;
60241;SDS011;46103;52.076;113.488;2024-03-06T01:11:48;84.70;;;34.13;;
60241;SDS011;46103;52.076;113.488;2024-03-06T01:14:52;57.08;;;23.77;;
60241;SDS011;46103;52.076;113.488;2024-03-06T01:17:56;66.18;;;30.88;;
60241;SDS011;46103;52.076;113.488;2024-03-06T01:21:00;57.53;;;24.15;;
60241;SDS011;46103;52.076;113.488;2024-03-06T01:24:05;77.15;;;33.55;;
60241;SDS011;46103;52.076;113.488;2024-03-06T01:27:09;46.85;;;20.13;;
60241;SDS011;46103;52.076;113.488;2024-03-06T01:30:12;35.22;;;13.80;;
60241;SDS011;46103;52.076;113.488;2024-03-06T01:33:16;35.38;;;15.73;;
60241;SDS011;46103;52.076;113.488;2024-03-06T01:36:20;35.10;;;15.05;;
60241;SDS011;46103;52.076;113.488;2024-03-06T01:39:23;33.65;;;16.83;;
60241;SDS011;46103;52.076;113.488;2024-03-06T01:42:27;38.05;;;17.10;;
60241;SDS011;46103;52.076;113.488;2024-03-06T01:45:35;36.20;;;13.77;;
60241;SDS011;46103;52.076;113.488;2024-03-06T01:48:39;32.53;;;14.20;;
60241;SDS011;46103;52.076;113.488;2024-03-06T01:51:47;32.65;;;14.88;;
60241;SDS011;46103;52.076;113.488;2024-03-06T01:54:52;51.35;;;19.70;;
60241;SDS011;46103;52.076;113.488;2024-03-06T01:57:56;47.75;;;22.27;;
60241;SDS011;46103;52.076;113.488;2024-03-06T02:01:00;38.65;;;17.52;;
60241;SDS011;46103;52.076;113.488;2024-03-06T02:04:06;41.75;;;18.20;;
60241;SDS011;46103;52.076;113.488;2024-03-06T02:07:14;46.28;;;21.52;;
60241;SDS011;46103;52.076;113.488;2024-03-06T02:10:20;36.55;;;19.45;;
60241;SDS011;46103;52.076;113.488;2024-03-06T02:13:24;34.72;;;15.02;;
60241;SDS011;46103;52.076;113.488;2024-03-06T02:16:28;28.15;;;16.10;;
60241;SDS011;46103;52.076;113.488;2024-03-06T02:19:41;36.55;;;16.48;;
60241;SDS011;46103;52.076;113.488;2024-03-06T02:22:46;36.03;;;16.65;;
60241;SDS011;46103;52.076;113.488;2024-03-06T02:25:50;43.17;;;18.30;;
60241;SDS011;46103;52.076;113.488;2024-03-06T02:28:55;38.47;;;17.92;;
60241;SDS011;46103;52.076;113.488;2024-03-06T02:31:59;39.38;;;18.48;;
60241;SDS011;46103;52.076;113.488;2024-03-06T02:35:05;42.92;;;21.05;;
60241;SDS011;46103;52.076;113.488;2024-03-06T02:38:12;42.65;;;19.67;;
60241;SDS011;46103;52.076;113.488;2024-03-06T02:41:16;34.70;;;17.15;;
60241;SDS011;46103;52.076;113.488;2024-03-06T02:44:20;38.45;;;19.13;;
60241;SDS011;46103;52.076;113.488;2024-03-06T02:47:25;43.35;;;18.02;;
60241;SDS011;46103;52.076;113.488;2024-03-06T02:50:29;38.83;;;17.75;;
60241;SDS011;46103;52.076;113.488;2024-03-06T02:53:33;31.52;;;16.20;;
60241;SDS011;46103;52.076;113.488;2024-03-06T02:56:36;31.50;;;17.33;;
60241;SDS011;46103;52.076;113.488;2024-03-06T02:59:40;30.23;;;13.80;;
60241;SDS011;46103;52.076;113.488;2024-03-06T03:02:46;16.95;;;10.07;;
60241;SDS011;46103;52.076;113.488;2024-03-06T03:05:51;24.33;;;11.95;;
60241;SDS011;46103;52.076;113.488;2024-03-06T03:08:55;19.75;;;8.98;;
60241;SDS011;46103;52.076;113.488;2024-03-06T03:11:59;18.98;;;8.27;;
60241;SDS011;46103;52.076;113.488;2024-03-06T03:15:03;13.10;;;5.07;;
60241;SDS011;46103;52.076;113.488;2024-03-06T03:18:07;18.42;;;6.25;;
60241;SDS011;46103;52.076;113.488;2024-03-06T03:21:11;19.17;;;7.05;;
60241;SDS011;46103;52.076;113.488;2024-03-06T03:24:16;21.02;;;8.23;;
60241;SDS011;46103;52.076;113.488;2024-03-06T03:27:23;18.98;;;7.70;;
60241;SDS011;46103;52.076;113.488;2024-03-06T03:30:26;19.58;;;8.05;;
60241;SDS011;46103;52.076;113.488;2024-03-06T03:33:30;21.40;;;8.93;;
60241;SDS011;46103;52.076;113.488;2024-03-06T03:36:34;19.15;;;8.32;;
60241;SDS011;46103;52.076;113.488;2024-03-06T03:39:38;20.05;;;7.97;;
60241;SDS011;46103;52.076;113.488;2024-03-06T03:42:43;16.83;;;7.50;;
60241;SDS011;46103;52.076;113.488;2024-03-06T03:45:49;16.17;;;6.88;;
60241;SDS011;46103;52.076;113.488;2024-03-06T03:48:52;10.20;;;4.88;;
60241;SDS011;46103;52.076;113.488;2024-03-06T03:51:55;14.55;;;6.03;;
60241;SDS011;46103;52.076;113.488;2024-03-06T03:54:59;15.05;;;6.50;;
60241;SDS011;46103;52.076;113.488;2024-03-06T03:58:02;15.45;;;6.90;;
60241;SDS011;46103;52.076;113.488;2024-03-06T04:01:10;9.75;;;5.00;;
60241;SDS011;46103;52.076;113.488;2024-03-06T04:04:23;6.25;;;3.05;;
60241;SDS011;46103;52.076;113.488;2024-03-06T04:07:27;11.73;;;5.30;;
60241;SDS011;46103;52.076;113.488;2024-03-06T04:13:43;11.43;;;5.30;;
60241;SDS011;46103;52.076;113.488;2024-03-06T04:16:47;10.85;;;5.78;;
60241;SDS011;46103;52.076;113.488;2024-03-06T04:19:54;11.90;;;4.40;;
60241;SDS011;46103;52.076;113.488;2024-03-06T04:22:58;6.18;;;2.80;;
60241;SDS011;46103;52.076;113.488;2024-03-06T04:26:01;11.30;;;3.67;;
60241;SDS011;46103;52.076;113.488;2024-03-06T04:29:06;13.80;;;4.80;;
60241;SDS011;46103;52.076;113.488;2024-03-06T04:32:10;8.35;;;2.90;;
60241;SDS011;46103;52.076;113.488;2024-03-06T04:35:13;8.23;;;3.30;;
60241;SDS011;46103;52.076;113.488;2024-03-06T04:38:18;4.68;;;1.95;;
60241;SDS011;46103;52.076;113.488;2024-03-06T04:41:27;5.40;;;2.53;;
60241;SDS011;46103;52.076;113.488;2024-03-06T04:44:58;5.85;;;2.47;;
60241;SDS011;46103;52.076;113.488;2024-03-06T04:48:24;6.20;;;2.17;;
60241;SDS011;46103;52.076;113.488;2024-03-06T04:51:29;6.45;;;2.40;;
60241;SDS011;46103;52.076;113.488;2024-03-06T04:54:32;7.13;;;3.20;;
60241;SDS011;46103;52.076;113.488;2024-03-06T04:57:37;7.57;;;2.90;;
60241;SDS011;46103;52.076;113.488;2024-03-06T05:00:42;6.32;;;3.10;;
60241;SDS011;46103;52.076;113.488;2024-03-06T05:03:45;6.90;;;2.95;;
60241;SDS011;46103;52.076;113.488;2024-03-06T05:07:06;7.18;;;2.63;;
60241;SDS011;46103;52.076;113.488;2024-03-06T05:10:27;6.30;;;3.28;;
60241;SDS011;46103;52.076;113.488;2024-03-06T05:13:47;6.75;;;3.13;;
60241;SDS011;46103;52.076;113.488;2024-03-06T05:17:09;7.40;;;3.47;;
60241;SDS011;46103;52.076;113.488;2024-03-06T05:20:29;6.40;;;3.13;;
60241;SDS011;46103;52.076;113.488;2024-03-06T05:23:51;6.70;;;3.67;;
60241;SDS011;46103;52.076;113.488;2024-03-06T05:27:11;7.78;;;3.63;;
60241;SDS011;46103;52.076;113.488;2024-03-06T05:30:37;7.10;;;3.30;;
60241;SDS011;46103;52.076;113.488;2024-03-06T05:33:58;7.53;;;3.13;;
60241;SDS011;46103;52.076;113.488;2024-03-06T05:37:18;6.75;;;3.35;;
60241;SDS011;46103;52.076;113.488;2024-03-06T05:40:39;8.50;;;3.30;;
60241;SDS011;46103;52.076;113.488;2024-03-06T05:44:03;5.97;;;2.72;;
60241;SDS011;46103;52.076;113.488;2024-03-06T05:47:24;12.35;;;3.53;;
60241;SDS011;46103;52.076;113.488;2024-03-06T05:50:44;12.77;;;3.92;;
60241;SDS011;46103;52.076;113.488;2024-03-06T05:54:05;8.70;;;3.28;;
60241;SDS011;46103;52.076;113.488;2024-03-06T05:57:28;7.30;;;3.17;;
60241;SDS011;46103;52.076;113.488;2024-03-06T06:00:49;8.20;;;3.67;;
60241;SDS011;46103;52.076;113.488;2024-03-06T06:03:53;7.25;;;2.80;;
60241;SDS011;46103;52.076;113.488;2024-03-06T06:06:57;9.68;;;3.42;;
60241;SDS011;46103;52.076;113.488;2024-03-06T06:10:01;13.52;;;6.93;;
60241;SDS011;46103;52.076;113.488;2024-03-06T06:13:05;7.38;;;2.95;;
60241;SDS011;46103;52.076;113.488;2024-03-06T06:16:08;8.25;;;3.30;;
60241;SDS011;46103;52.076;113.488;2024-03-06T06:19:12;8.45;;;4.10;;
60241;SDS011;46103;52.076;113.488;2024-03-06T06:22:16;7.85;;;3.45;;
60241;SDS011;46103;52.076;113.488;2024-03-06T06:25:20;9.50;;;3.88;;
60241;SDS011;46103;52.076;113.488;2024-03-06T06:28:24;9.82;;;4.28;;
60241;SDS011;46103;52.076;113.488;2024-03-06T06:31:28;7.95;;;3.13;;
60241;SDS011;46103;52.076;113.488;2024-03-06T06:34:32;7.95;;;3.35;;
60241;SDS011;46103;52.076;113.488;2024-03-06T06:37:37;5.90;;;2.70;;
60241;SDS011;46103;52.076;113.488;2024-03-06T06:40:41;5.55;;;3.50;;
60241;SDS011;46103;52.076;113.488;2024-03-06T06:43:45;8.88;;;2.88;;
60241;SDS011;46103;52.076;113.488;2024-03-06T06:46:49;8.57;;;2.40;;
60241;SDS011;46103;52.076;113.488;2024-03-06T06:49:52;8.80;;;3.05;;
60241;SDS011;46103;52.076;113.488;2024-03-06T06:52:56;9.70;;;3.72;;
60241;SDS011;46103;52.076;113.488;2024-03-06T06:56:02;11.90;;;3.58;;
60241;SDS011;46103;52.076;113.488;2024-03-06T06:59:07;7.65;;;3.15;;
60241;SDS011;46103;52.076;113.488;2024-03-06T07:02:10;8.18;;;3.38;;
60241;SDS011;46103;52.076;113.488;2024-03-06T07:05:14;6.03;;;2.70;;
60241;SDS011;46103;52.076;113.488;2024-03-06T07:08:18;3.78;;;1.90;;
60241;SDS011;46103;52.076;113.488;2024-03-06T07:11:22;5.35;;;2.20;;
60241;SDS011;46103;52.076;113.488;2024-03-06T07:14:27;4.60;;;1.90;;
60241;SDS011;46103;52.076;113.488;2024-03-06T07:17:31;5.35;;;2.50;;
60241;SDS011;46103;52.076;113.488;2024-03-06T07:20:34;6.20;;;2.53;;
60241;SDS011;46103;52.076;113.488;2024-03-06T07:23:39;6.13;;;2.60;;
60241;SDS011;46103;52.076;113.488;2024-03-06T07:26:43;3.47;;;1.67;;
60241;SDS011;46103;52.076;113.488;2024-03-06T07:29:46;3.15;;;1.30;;
60241;SDS011;46103;52.076;113.488;2024-03-06T07:32:50;2.80;;;1.30;;
60241;SDS011;46103;52.076;113.488;2024-03-06T07:35:54;2.97;;;1.42;;
60241;SDS011;46103;52.076;113.488;2024-03-06T07:38:59;4.55;;;2.05;;
60241;SDS011;46103;52.076;113.488;2024-03-06T07:42:03;2.30;;;1.02;;
60241;SDS011;46103;52.076;113.488;2024-03-06T07:45:07;5.03;;;2.00;;
60241;SDS011;46103;52.076;113.488;2024-03-06T07:48:12;4.25;;;1.67;;
60241;SDS011;46103;52.076;113.488;2024-03-06T07:51:16;4.50;;;2.22;;
60241;SDS011;46103;52.076;113.488;2024-03-06T07:54:20;5.30;;;2.20;;
60241;SDS011;46103;52.076;113.488;2024-03-06T07:57:24;4.28;;;1.70;;
60241;SDS011;46103;52.076;113.488;2024-03-06T08:00:28;5.10;;;1.92;;
60241;SDS011;46103;52.076;113.488;2024-03-06T08:03:33;3.92;;;1.45;;
60241;SDS011;46103;52.076;113.488;2024-03-06T08:06:37;3.63;;;1.88;;
60241;SDS011;46103;52.076;113.488;2024-03-06T08:09:40;4.25;;;1.55;;
60241;SDS011;46103;52.076;113.488;2024-03-06T08:12:46;3.17;;;1.90;;
60241;SDS011;46103;52.076;113.488;2024-03-06T08:15:53;5.75;;;2.35;;
60241;SDS011;46103;52.076;113.488;2024-03-06T08:18:57;7.28;;;2.85;;
60241;SDS011;46103;52.076;113.488;2024-03-06T08:22:02;4.00;;;1.95;;
60241;SDS011;46103;52.076;113.488;2024-03-06T08:25:08;3.47;;;2.08;;
60241;SDS011;46103;52.076;113.488;2024-03-06T08:28:13;5.13;;;1.75;;
60241;SDS011;46103;52.076;113.488;2024-03-06T08:31:17;4.55;;;2.05;;
60241;SDS011;46103;52.076;113.488;2024-03-06T08:34:21;4.50;;;2.25;;
60241;SDS011;46103;52.076;113.488;2024-03-06T08:37:26;4.45;;;2.20;;
60241;SDS011;46103;52.076;113.488;2024-03-06T08:40:29;4.57;;;2.10;;
60241;SDS011;46103;52.076;113.488;2024-03-06T08:43:33;6.88;;;2.38;;
60241;SDS011;46103;52.076;113.488;2024-03-06T08:46:38;7.07;;;2.13;;
60241;SDS011;46103;52.076;113.488;2024-03-06T08:49:44;4.10;;;1.65;;
60241;SDS011;46103;52.076;113.488;2024-03-06T08:52:47;4.28;;;1.95;;
60241;SDS011;46103;52.076;113.488;2024-03-06T08:55:51;4.05;;;1.70;;
60241;SDS011;46103;52.076;113.488;2024-03-06T08:58:55;3.47;;;1.30;;
60241;SDS011;46103;52.076;113.488;2024-03-06T09:02:10;5.55;;;2.05;;
60241;SDS011;46103;52.076;113.488;2024-03-06T09:05:18;6.53;;;2.17;;
60241;SDS011;46103;52.076;113.488;2024-03-06T09:08:23;4.53;;;1.73;;
60241;SDS011;46103;52.076;113.488;2024-03-06T09:11:27;4.55;;;2.25;;
60241;SDS011;46103;52.076;113.488;2024-03-06T09:14:34;4.20;;;2.17;;
60241;SDS011;46103;52.076;113.488;2024-03-06T09:17:38;9.35;;;3.83;;
60241;SDS011;46103;52.076;113.488;2024-03-06T09:20:42;6.95;;;3.30;;
60241;SDS011;46103;52.076;113.488;2024-03-06T09:23:45;4.57;;;1.95;;
60241;SDS011;46103;52.076;113.488;2024-03-06T09:26:49;8.85;;;3.67;;
60241;SDS011;46103;52.076;113.488;2024-03-06T09:29:52;5.68;;;2.67;;
60241;SDS011;46103;52.076;113.488;2024-03-06T09:32:56;3.97;;;1.80;;
60241;SDS011;46103;52.076;113.488;2024-03-06T09:36:01;4.40;;;2.30;;
60241;SDS011;46103;52.076;113.488;2024-03-06T09:39:06;4.32;;;1.95;;
60241;SDS011;46103;52.076;113.488;2024-03-06T09:42:10;7.88;;;4.50;;
60241;SDS011;46103;52.076;113.488;2024-03-06T09:45:15;5.03;;;2.88;;
60241;SDS011;46103;52.076;113.488;2024-03-06T09:48:20;16.52;;;7.72;;
60241;SDS011;46103;52.076;113.488;2024-03-06T09:51:24;14.35;;;6.90;;
60241;SDS011;46103;52.076;113.488;2024-03-06T09:54:28;14.57;;;6.40;;
60241;SDS011;46103;52.076;113.488;2024-03-06T09:57:33;21.42;;;9.80;;
60241;SDS011;46103;52.076;113.488;2024-03-06T10:00:36;8.85;;;5.10;;
60241;SDS011;46103;52.076;113.488;2024-03-06T10:03:41;9.60;;;4.28;;
60241;SDS011;46103;52.076;113.488;2024-03-06T10:06:45;5.95;;;3.00;;
60241;SDS011;46103;52.076;113.488;2024-03-06T10:09:50;6.68;;;3.70;;
60241;SDS011;46103;52.076;113.488;2024-03-06T10:12:53;12.43;;;3.78;;
60241;SDS011;46103;52.076;113.488;2024-03-06T10:16:00;5.93;;;2.40;;
60241;SDS011;46103;52.076;113.488;2024-03-06T10:19:15;9.00;;;3.78;;
60241;SDS011;46103;52.076;113.488;2024-03-06T10:22:22;4.57;;;2.53;;
60241;SDS011;46103;52.076;113.488;2024-03-06T10:25:27;8.35;;;3.42;;
60241;SDS011;46103;52.076;113.488;2024-03-06T10:28:31;21.55;;;8.00;;
60241;SDS011;46103;52.076;113.488;2024-03-06T10:31:35;14.02;;;6.85;;
60241;SDS011;46103;52.076;113.488;2024-03-06T10:34:39;13.77;;;6.45;;
60241;SDS011;46103;52.076;113.488;2024-03-06T10:37:45;4.13;;;1.30;;
60241;SDS011;46103;52.076;113.488;2024-03-06T10:40:50;12.35;;;4.50;;
60241;SDS011;46103;52.076;113.488;2024-03-06T10:43:55;5.28;;;2.90;;
60241;SDS011;46103;52.076;113.488;2024-03-06T10:47:06;9.20;;;4.05;;
60241;SDS011;46103;52.076;113.488;2024-03-06T10:50:12;11.57;;;4.38;;
60241;SDS011;46103;52.076;113.488;2024-03-06T10:53:19;6.10;;;2.78;;
60241;SDS011;46103;52.076;113.488;2024-03-06T10:56:25;7.57;;;3.30;;
60241;SDS011;46103;52.076;113.488;2024-03-06T10:59:29;10.27;;;4.80;;
60241;SDS011;46103;52.076;113.488;2024-03-06T11:02:33;8.25;;;3.55;;
60241;SDS011;46103;52.076;113.488;2024-03-06T11:05:40;7.57;;;2.50;;
60241;SDS011;46103;52.076;113.488;2024-03-06T11:08:45;7.80;;;3.83;;
60241;SDS011;46103;52.076;113.488;2024-03-06T11:11:50;8.80;;;3.47;;
60241;SDS011;46103;52.076;113.488;2024-03-06T11:14:55;4.82;;;3.10;;
60241;SDS011;46103;52.076;113.488;2024-03-06T11:18:20;8.93;;;3.03;;
60241;SDS011;46103;52.076;113.488;2024-03-06T11:21:32;7.45;;;3.22;;
60241;SDS011;46103;52.076;113.488;2024-03-06T11:24:36;10.52;;;5.05;;
60241;SDS011;46103;52.076;113.488;2024-03-06T11:31:14;9.05;;;3.92;;
60241;SDS011;46103;52.076;113.488;2024-03-06T11:34:21;6.72;;;4.07;;
60241;SDS011;46103;52.076;113.488;2024-03-06T11:37:26;16.40;;;6.50;;
60241;SDS011;46103;52.076;113.488;2024-03-06T11:40:29;14.65;;;7.68;;
60241;SDS011;46103;52.076;113.488;2024-03-06T11:43:33;18.10;;;7.07;;
60241;SDS011;46103;52.076;113.488;2024-03-06T11:49:51;42.80;;;21.15;;
60241;SDS011;46103;52.076;113.488;2024-03-06T11:52:57;39.97;;;16.38;;
60241;SDS011;46103;52.076;113.488;2024-03-06T11:56:01;35.20;;;15.88;;
60241;SDS011;46103;52.076;113.488;2024-03-06T11:59:05;39.55;;;17.08;;
60241;SDS011;46103;52.076;113.488;2024-03-06T12:09:52;26.98;;;9.93;;
60241;SDS011;46103;52.076;113.488;2024-03-06T12:12:57;24.77;;;9.80;;
60241;SDS011;46103;52.076;113.488;2024-03-06T12:16:04;20.80;;;8.70;;
60241;SDS011;46103;52.076;113.488;2024-03-06T12:19:08;26.85;;;11.98;;
60241;SDS011;46103;52.076;113.488;2024-03-06T12:22:12;17.63;;;8.45;;
60241;SDS011;46103;52.076;113.488;2024-03-06T12:25:20;25.23;;;11.43;;
60241;SDS011;46103;52.076;113.488;2024-03-06T12:28:28;21.10;;;9.48;;
60241;SDS011;46103;52.076;113.488;2024-03-06T12:31:33;16.48;;;8.93;;
60241;SDS011;46103;52.076;113.488;2024-03-06T12:34:39;16.25;;;7.70;;
60241;SDS011;46103;52.076;113.488;2024-03-06T12:41:37;22.20;;;10.90;;
60241;SDS011;46103;52.076;113.488;2024-03-06T12:45:11;20.48;;;8.95;;
60241;SDS011;46103;52.076;113.488;2024-03-06T12:52:20;22.17;;;11.18;;
60241;SDS011;46103;52.076;113.488;2024-03-06T12:55:24;12.23;;;5.85;;
60241;SDS011;46103;52.076;113.488;2024-03-06T12:58:28;19.25;;;9.52;;
60241;SDS011;46103;52.076;113.488;2024-03-06T13:01:34;22.98;;;10.75;;
60241;SDS011;46103;52.076;113.488;2024-03-06T13:04:38;21.20;;;9.63;;
60241;SDS011;46103;52.076;113.488;2024-03-06T13:07:45;22.98;;;8.98;;
60241;SDS011;46103;52.076;113.488;2024-03-06T13:11:22;14.10;;;6.38;;
60241;SDS011;46103;52.076;113.488;2024-03-06T13:14:29;22.05;;;9.77;;
60241;SDS011;46103;52.076;113.488;2024-03-06T13:25:14;17.00;;;7.90;;
60241;SDS011;46103;52.076;113.488;2024-03-06T13:28:38;16.38;;;8.63;;
60241;SDS011;46103;52.076;113.488;2024-03-06T13:32:42;17.30;;;7.25;;
60241;SDS011;46103;52.076;113.488;2024-03-06T13:36:08;15.07;;;7.50;;
60241;SDS011;46103;52.076;113.488;2024-03-06T13:46:43;14.90;;;7.20;;
60241;SDS011;46103;52.076;113.488;2024-03-06T14:01:10;9.88;;;4.78;;
60241;SDS011;46103;52.076;113.488;2024-03-06T14:04:13;14.00;;;5.60;;
60241;SDS011;46103;52.076;113.488;2024-03-06T14:07:17;12.70;;;4.57;;
60241;SDS011;46103;52.076;113.488;2024-03-06T14:10:20;12.70;;;5.53;;
60241;SDS011;46103;52.076;113.488;2024-03-06T14:13:25;14.27;;;6.07;;
60241;SDS011;46103;52.076;113.488;2024-03-06T14:16:28;11.88;;;4.80;;
60241;SDS011;46103;52.076;113.488;2024-03-06T14:19:32;10.07;;;4.22;;
60241;SDS011;46103;52.076;113.488;2024-03-06T14:22:35;14.52;;;5.63;;
60241;SDS011;46103;52.076;113.488;2024-03-06T14:25:38;7.13;;;2.92;;
60241;SDS011;46103;52.076;113.488;2024-03-06T14:28:41;8.32;;;3.72;;
60241;SDS011;46103;52.076;113.488;2024-03-06T14:31:45;8.55;;;3.80;;
60241;SDS011;46103;52.076;113.488;2024-03-06T14:34:48;7.38;;;2.60;;
60241;SDS011;46103;52.076;113.488;2024-03-06T14:37:53;7.40;;;2.92;;
60241;SDS011;46103;52.076;113.488;2024-03-06T14:43:59;4.70;;;1.98;;
60241;SDS011;46103;52.076;113.488;2024-03-06T14:47:03;8.73;;;3.35;;
60241;SDS011;46103;52.076;113.488;2024-03-06T14:50:13;6.13;;;1.98;;
60241;SDS011;46103;52.076;113.488;2024-03-06T14:53:19;7.20;;;2.85;;
60241;SDS011;46103;52.076;113.488;2024-03-06T14:56:22;8.77;;;1.75;;
60241;SDS011;46103;52.076;113.488;2024-03-06T14:59:26;8.55;;;4.07;;
60241;SDS011;46103;52.076;113.488;2024-03-06T15:05:32;17.20;;;6.15;;
60241;SDS011;46103;52.076;113.488;2024-03-06T15:08:36;15.98;;;5.75;;
60241;SDS011;46103;52.076;113.488;2024-03-06T15:11:40;15.38;;;5.75;;
60241;SDS011;46103;52.076;113.488;2024-03-06T15:17:51;8.45;;;3.55;;
60241;SDS011;46103;52.076;113.488;2024-03-06T15:24:07;8.07;;;3.75;;
60241;SDS011;46103;52.076;113.488;2024-03-06T15:27:12;8.90;;;4.18;;
60241;SDS011;46103;52.076;113.488;2024-03-06T15:30:18;8.65;;;3.78;;
60241;SDS011;46103;52.076;113.488;2024-03-06T15:33:22;14.65;;;4.70;;
60241;SDS011;46103;52.076;113.488;2024-03-06T15:36:26;13.80;;;5.25;;
60241;SDS011;46103;52.076;113.488;2024-03-06T15:39:40;11.13;;;5.00;;
60241;SDS011;46103;52.076;113.488;2024-03-06T15:42:46;12.52;;;5.50;;
60241;SDS011;46103;52.076;113.488;2024-03-06T15:45:58;11.63;;;4.90;;
60241;SDS011;46103;52.076;113.488;2024-03-06T15:49:32;7.82;;;3.05;;
60241;SDS011;46103;52.076;113.488;2024-03-06T15:52:51;8.23;;;3.45;;
60241;SDS011;46103;52.076;113.488;2024-03-06T15:56:08;9.02;;;3.85;;
60241;SDS011;46103;52.076;113.488;2024-03-06T15:59:26;7.80;;;2.83;;
60241;SDS011;46103;52.076;113.488;2024-03-06T16:02:51;7.28;;;3.20;;
60241;SDS011;46103;52.076;113.488;2024-03-06T16:06:03;5.63;;;2.63;;
60241;SDS011;46103;52.076;113.488;2024-03-06T16:09:21;7.13;;;2.63;;
60241;SDS011;46103;52.076;113.488;2024-03-06T16:12:25;8.18;;;3.20;;
60241;SDS011;46103;52.076;113.488;2024-03-06T16:15:29;8.95;;;3.58;;
60241;SDS011;46103;52.076;113.488;2024-03-06T16:18:33;16.33;;;5.20;;
60241;SDS011;46103;52.076;113.488;2024-03-06T16:21:37;8.77;;;4.45;;
60241;SDS011;46103;52.076;113.488;2024-03-06T16:24:41;14.13;;;4.90;;
60241;SDS011;46103;52.076;113.488;2024-03-06T16:27:44;10.70;;;4.85;;
60241;SDS011;46103;52.076;113.488;2024-03-06T16:30:48;10.25;;;4.20;;
60241;SDS011;46103;52.076;113.488;2024-03-06T16:33:52;11.57;;;4.60;;
60241;SDS011;46103;52.076;113.488;2024-03-06T16:36:56;8.60;;;4.13;;
60241;SDS011;46103;52.076;113.488;2024-03-06T16:39:59;11.85;;;4.10;;
60241;SDS011;46103;52.076;113.488;2024-03-06T16:43:03;9.30;;;3.35;;
60241;SDS011;46103;52.076;113.488;2024-03-06T16:46:08;7.40;;;3.53;;
60241;SDS011;46103;52.076;113.488;2024-03-06T16:49:13;8.65;;;3.35;;
60241;SDS011;46103;52.076;113.488;2024-03-06T16:52:16;7.47;;;3.05;;
60241;SDS011;46103;52.076;113.488;2024-03-06T16:55:20;7.28;;;3.25;;
60241;SDS011;46103;52.076;113.488;2024-03-06T16:58:24;8.25;;;3.15;;
60241;SDS011;46103;52.076;113.488;2024-03-06T17:01:28;6.72;;;3.58;;
60241;SDS011;46103;52.076;113.488;2024-03-06T17:04:32;6.32;;;2.33;;
60241;SDS011;46103;52.076;113.488;2024-03-06T17:07:35;3.78;;;1.85;;
60241;SDS011;46103;52.076;113.488;2024-03-06T17:10:40;11.00;;;4.03;;
60241;SDS011;46103;52.076;113.488;2024-03-06T17:16:51;10.50;;;3.72;;
60241;SDS011;46103;52.076;113.488;2024-03-06T17:19:54;14.65;;;5.80;;
60241;SDS011;46103;52.076;113.488;2024-03-06T17:22:59;19.02;;;6.60;;
60241;SDS011;46103;52.076;113.488;2024-03-06T17:26:06;14.38;;;7.07;;
60241;SDS011;46103;52.076;113.488;2024-03-06T17:29:10;14.23;;;6.00;;
60241;SDS011;46103;52.076;113.488;2024-03-06T17:32:14;16.40;;;6.28;;
60241;SDS011;46103;52.076;113.488;2024-03-06T17:35:18;19.85;;;7.68;;
60241;SDS011;46103;52.076;113.488;2024-03-06T17:38:22;12.63;;;5.90;;
60241;SDS011;46103;52.076;113.488;2024-03-06T17:41:28;16.38;;;6.70;;
60241;SDS011;46103;52.076;113.488;2024-03-06T17:44:33;21.60;;;8.27;;
60241;SDS011;46103;52.076;113.488;2024-03-06T17:50:43;22.77;;;9.10;;
60241;SDS011;46103;52.076;113.488;2024-03-06T17:53:49;16.75;;;7.95;;
60241;SDS011;46103;52.076;113.488;2024-03-06T17:56:53;18.67;;;6.95;;
60241;SDS011;46103;52.076;113.488;2024-03-06T18:00:01;14.23;;;5.03;;
60241;SDS011;46103;52.076;113.488;2024-03-06T18:03:14;12.55;;;4.70;;
60241;SDS011;46103;52.076;113.488;2024-03-06T18:06:18;11.77;;;4.95;;
60241;SDS011;46103;52.076;113.488;2024-03-06T18:09:23;10.90;;;3.85;;
60241;SDS011;46103;52.076;113.488;2024-03-06T18:12:26;16.30;;;5.60;;
60241;SDS011;46103;52.076;113.488;2024-03-06T18:15:33;10.10;;;4.38;;
60241;SDS011;46103;52.076;113.488;2024-03-06T18:18:37;8.93;;;3.45;;
60241;SDS011;46103;52.076;113.488;2024-03-06T18:21:44;9.63;;;4.65;;
60241;SDS011;46103;52.076;113.488;2024-03-06T18:24:49;9.77;;;3.85;;
60241;SDS011;46103;52.076;113.488;2024-03-06T18:27:54;14.30;;;4.88;;
60241;SDS011;46103;52.076;113.488;2024-03-06T18:30:58;14.40;;;5.03;;
60241;SDS011;46103;52.076;113.488;2024-03-06T18:37:12;11.10;;;4.00;;
60241;SDS011;46103;52.076;113.488;2024-03-06T18:40:17;9.13;;;4.10;;
60241;SDS011;46103;52.076;113.488;2024-03-06T18:43:20;8.35;;;3.90;;
60241;SDS011;46103;52.076;113.488;2024-03-06T18:46:24;11.85;;;4.85;;
60241;SDS011;46103;52.076;113.488;2024-03-06T18:49:28;6.18;;;2.95;;
60241;SDS011;46103;52.076;113.488;2024-03-06T18:52:32;11.00;;;4.05;;
60241;SDS011;46103;52.076;113.488;2024-03-06T18:55:36;7.25;;;3.33;;
60241;SDS011;46103;52.076;113.488;2024-03-06T18:58:40;9.07;;;3.88;;
60241;SDS011;46103;52.076;113.488;2024-03-06T19:01:47;9.82;;;3.88;;
60241;SDS011;46103;52.076;113.488;2024-03-06T19:04:51;10.27;;;4.18;;
60241;SDS011;46103;52.076;113.488;2024-03-06T19:07:56;9.93;;;3.85;;
60241;SDS011;46103;52.076;113.488;2024-03-06T19:11:00;11.98;;;4.72;;
60241;SDS011;46103;52.076;113.488;2024-03-06T19:14:05;8.15;;;3.80;;
60241;SDS011;46103;52.076;113.488;2024-03-06T19:17:09;8.00;;;2.63;;